Time;durP1;ratioP1;P1;durP2;ratioP2;P2;SDS_P1;SDS_P2;PMS_P1;PMS_P2;Temp;Humidity;BMP_temperature;BMP_pressure;BME280_temperature;BME280_humidity;BME280_pressure;Samples;Min_cycle;Max_cycle;Signal;HPM_P1;HPM_P2
2021/09/24 00:01:17;;;;;;;32.13;12.57;;;;;;;10.91;100.00;99933.39;1707710;82;21704;-64
2021/09/24 00:03:43;;;;;;;30.50;12.70;;;;;;;10.84;100.00;99940.87;1701781;82;21250;-59
2021/09/24 00:06:12;;;;;;;23.57;12.47;;;;;;;10.78;100.00;99932.00;1689014;82;22644;-60
2021/09/24 00:08:40;;;;;;;19.67;10.63;;;;;;;10.74;100.00;99932.08;1707345;82;21390;-60
2021/09/24 00:11:06;;;;;;;15.70;8.60;;;;;;;10.58;100.00;99935.80;1709351;82;22353;-60
2021/09/24 00:13:34;;;;;;;18.07;9.60;;;;;;;10.61;100.00;99939.33;1709489;82;21332;-66
2021/09/24 00:16:04;;;;;;;15.77;10.37;;;;;;;10.56;100.00;99938.27;1709511;81;21232;-60
2021/09/24 00:18:30;;;;;;;15.13;8.77;;;;;;;10.53;100.00;99938.65;1707500;82;21252;-59
2021/09/24 00:20:58;;;;;;;12.87;8.47;;;;;;;10.68;100.00;99941.48;1704242;82;21852;-59
2021/09/24 00:23:26;;;;;;;13.13;8.17;;;;;;;10.68;100.00;99935.44;1710015;82;21801;-63
2021/09/24 00:25:53;;;;;;;12.17;8.23;;;;;;;10.70;100.00;99928.24;1703853;82;21251;-60
2021/09/24 00:28:20;;;;;;;9.73;8.00;;;;;;;10.80;100.00;99928.72;1707431;82;21414;-61
2021/09/24 00:30:48;;;;;;;9.10;7.03;;;;;;;10.77;100.00;99929.59;1703011;82;21256;-59
2021/09/24 00:33:15;;;;;;;9.47;6.63;;;;;;;10.81;100.00;99931.62;1708792;82;21763;-59
2021/09/24 00:35:41;;;;;;;7.50;5.73;;;;;;;10.82;100.00;99931.91;1704325;82;21274;-64
2021/09/24 00:38:07;;;;;;;9.47;7.17;;;;;;;10.89;100.00;99928.05;1705753;82;21269;-59
2021/09/24 00:40:36;;;;;;;11.00;7.20;;;;;;;10.85;100.00;99930.23;1707714;82;21448;-60
2021/09/24 00:43:03;;;;;;;8.60;6.53;;;;;;;10.81;100.00;99927.70;1703110;82;21302;-59
2021/09/24 00:45:32;;;;;;;9.30;7.23;;;;;;;10.75;100.00;99921.14;1706676;82;21300;-59
2021/09/24 00:48:01;;;;;;;10.97;7.27;;;;;;;10.89;100.00;99933.27;1701036;82;21190;-64
2021/09/24 00:50:28;;;;;;;9.97;7.63;;;;;;;11.08;100.00;99939.58;1699440;82;21397;-59
2021/09/24 00:52:56;;;;;;;10.50;7.37;;;;;;;11.03;100.00;99934.95;1689452;82;21209;-60
2021/09/24 00:55:26;;;;;;;11.20;7.07;;;;;;;10.83;100.00;99934.02;1687171;82;22361;-61
2021/09/24 00:57:52;;;;;;;9.57;6.83;;;;;;;10.86;100.00;99938.35;1703618;82;21301;-60
2021/09/24 01:00:19;;;;;;;9.83;7.13;;;;;;;10.65;100.00;99934.04;1704295;82;21315;-60
2021/09/24 01:02:47;;;;;;;10.63;7.73;;;;;;;10.52;100.00;99938.34;1707213;82;22638;-60
2021/09/24 01:05:15;;;;;;;9.13;7.07;;;;;;;10.48;100.00;99938.72;1707805;82;21826;-59
2021/09/24 01:07:44;;;;;;;9.33;7.23;;;;;;;10.62;100.00;99941.44;1703996;82;21067;-62
2021/09/24 01:10:15;;;;;;;8.63;6.30;;;;;;;10.54;100.00;99939.78;1709303;82;21835;-62
2021/09/24 01:12:42;;;;;;;8.53;6.63;;;;;;;10.70;100.00;99940.78;1705064;82;21354;-59
2021/09/24 01:15:12;;;;;;;8.67;6.83;;;;;;;10.55;100.00;99936.67;1710654;82;21308;-60
2021/09/24 01:17:41;;;;;;;8.95;6.78;;;;;;;10.35;100.00;99930.83;1702055;83;21326;-59
2021/09/24 01:20:10;;;;;;;9.20;7.53;;;;;;;10.50;100.00;99936.45;1710916;82;21106;-66
2021/09/24 01:22:37;;;;;;;9.73;6.70;;;;;;;10.48;100.00;99934.02;1706425;83;21192;-59
2021/09/24 01:25:06;;;;;;;9.17;7.17;;;;;;;10.53;100.00;99936.04;1705477;82;21703;-59
2021/09/24 01:27:33;;;;;;;9.47;6.97;;;;;;;10.48;100.00;99936.11;1705654;83;21437;-59
2021/09/24 01:30:02;;;;;;;10.57;7.43;;;;;;;10.46;100.00;99935.52;1707545;82;21299;-59
2021/09/24 01:32:31;;;;;;;9.23;7.27;;;;;;;10.40;100.00;99934.96;1705769;82;21287;-60
2021/09/24 01:35:02;;;;;;;12.37;8.23;;;;;;;10.52;100.00;99930.53;1704632;83;21796;-61
2021/09/24 01:37:29;;;;;;;;;;;;;;;10.45;100.00;99927.40;1709522;82;21184;-60
2021/09/24 01:39:55;;;;;;;14.17;8.87;;;;;;;10.40;100.00;99924.53;1708059;82;20821;-59
2021/09/24 01:42:23;;;;;;;13.10;8.30;;;;;;;10.43;100.00;99920.25;1705091;82;21316;-59
2021/09/24 01:44:51;;;;;;;10.63;8.07;;;;;;;10.32;100.00;99918.17;1708389;82;21628;-59
2021/09/24 01:47:17;;;;;;;13.20;8.20;;;;;;;10.28;100.00;99918.24;1713860;82;21306;-63
2021/09/24 01:49:44;;;;;;;16.97;9.07;;;;;;;10.09;100.00;99916.27;1702753;82;21453;-60
2021/09/24 01:52:12;;;;;;;15.17;9.00;;;;;;;9.96;100.00;99918.23;1707209;82;22685;-60
2021/09/24 01:54:41;;;;;;;13.30;8.53;;;;;;;9.87;100.00;99923.27;1708578;82;21166;-60
2021/09/24 01:57:08;;;;;;;14.37;8.60;;;;;;;9.72;100.00;99927.23;1706743;82;21767;-65
2021/09/24 01:59:36;;;;;;;14.43;8.90;;;;;;;9.65;100.00;99925.86;1705285;82;21358;-60
2021/09/24 02:02:03;;;;;;;14.13;8.77;;;;;;;9.83;100.00;99929.84;1706402;82;21098;-59
2021/09/24 02:04:31;;;;;;;17.13;8.90;;;;;;;9.90;100.00;99931.52;1701465;82;21359;-60
2021/09/24 02:06:59;;;;;;;13.07;8.20;;;;;;;9.94;100.00;99921.05;1694657;82;21294;-64
2021/09/24 02:09:26;;;;;;;18.90;8.47;;;;;;;9.89;100.00;99918.70;1697839;83;21305;-59
2021/09/24 02:11:54;;;;;;;18.63;9.57;;;;;;;9.81;100.00;99910.52;1699562;82;21182;-61
2021/09/24 02:14:20;;;;;;;19.80;9.83;;;;;;;9.79;100.00;99908.59;1700526;82;21300;-61
2021/09/24 02:16:48;;;;;;;23.03;9.60;;;;;;;9.77;100.00;99907.95;1681457;83;22605;-60
2021/09/24 02:19:17;;;;;;;19.27;8.90;;;;;;;9.69;100.00;99910.69;1666740;84;21706;-61
2021/09/24 02:21:45;;;;;;;18.73;8.93;;;;;;;9.58;100.00;99905.97;1668692;84;21142;-61
2021/09/24 02:24:13;;;;;;;18.47;8.83;;;;;;;9.60;100.00;99902.70;1670972;84;21057;-61
2021/09/24 02:26:40;;;;;;;17.00;9.30;;;;;;;9.59;100.00;99903.70;1667108;84;21359;-60
2021/09/24 02:29:09;;;;;;;20.23;9.67;;;;;;;9.50;100.00;99905.09;1667056;84;21686;-62
2021/09/24 02:31:37;;;;;;;16.47;8.53;;;;;;;9.37;100.00;99898.46;1668954;84;22514;-58
2021/09/24 02:34:04;;;;;;;10.67;7.30;;;;;;;9.37;100.00;99897.16;1671236;84;21205;-58
2021/09/24 02:36:30;;;;;;;12.60;7.20;;;;;;;9.17;100.00;99896.14;1666905;84;21139;-61
2021/09/24 02:38:57;;;;;;;11.43;7.93;;;;;;;9.07;100.00;99902.12;1667462;84;21311;-65
2021/09/24 02:41:24;;;;;;;14.70;8.03;;;;;;;8.99;100.00;99899.92;1668581;84;21234;-61
2021/09/24 02:43:52;;;;;;;16.87;8.10;;;;;;;9.03;100.00;99900.38;1670337;84;21056;-60
2021/09/24 02:46:20;;;;;;;21.23;7.43;;;;;;;9.01;100.00;99899.23;1670307;84;21457;-63
2021/09/24 02:48:48;;;;;;;14.03;7.23;;;;;;;8.87;100.00;99896.67;1670436;84;21194;-60
2021/09/24 02:51:16;;;;;;;23.93;8.23;;;;;;;8.73;100.00;99900.88;1667007;84;21241;-59
2021/09/24 02:53:44;;;;;;;18.83;8.13;;;;;;;8.70;100.00;99890.84;1680238;84;21909;-58
2021/09/24 02:56:10;;;;;;;23.87;7.97;;;;;;;8.42;100.00;99895.36;1672493;84;21169;-61
2021/09/24 02:58:37;;;;;;;19.10;6.87;;;;;;;8.23;100.00;99893.25;1668193;84;21391;-58
2021/09/24 03:01:05;;;;;;;17.83;7.57;;;;;;;8.18;100.00;99899.44;1670638;81;21229;-58
2021/09/24 03:03:33;;;;;;;14.80;7.80;;;;;;;8.08;100.00;99898.90;1674514;83;21118;-58
2021/09/24 03:05:59;;;;;;;16.17;7.10;;;;;;;8.20;100.00;99898.78;1673960;85;22178;-58
2021/09/24 03:08:27;;;;;;;13.27;8.43;;;;;;;8.19;100.00;99903.67;1679054;83;21557;-58
2021/09/24 03:10:56;;;;;;;12.07;6.77;;;;;;;8.15;100.00;99899.32;1673841;83;21805;-58
2021/09/24 03:13:22;;;;;;;11.90;7.83;;;;;;;8.17;100.00;99897.84;1671244;83;22144;-58
2021/09/24 03:15:49;;;;;;;11.33;7.60;;;;;;;7.92;100.00;99904.55;1671469;83;21354;-58
2021/09/24 03:18:15;;;;;;;18.93;10.77;;;;;;;7.89;100.00;99913.97;1669090;83;21193;-59
2021/09/24 03:20:42;;;;;;;14.65;7.78;;;;;;;7.89;100.00;99911.87;1706881;82;21345;-63
2021/09/24 03:23:10;;;;;;;12.28;7.33;;;;;;;8.02;100.00;99896.00;1678553;83;21604;-58
2021/09/24 03:25:39;;;;;;;13.70;7.80;;;;;;;7.97;100.00;99893.63;1709168;82;21015;-58
2021/09/24 03:28:05;;;;;;;10.47;6.77;;;;;;;8.03;100.00;99895.51;1674477;85;21543;-58
2021/09/24 03:30:32;;;;;;;13.72;8.48;;;;;;;7.72;100.00;99898.19;1679210;83;21216;-64
2021/09/24 03:32:58;;;;;;;15.17;7.60;;;;;;;7.68;100.00;99904.70;1684639;84;21152;-58
2021/09/24 03:35:25;;;;;;;12.60;8.37;;;;;;;7.82;100.00;99902.66;1691943;83;21315;-59
2021/09/24 03:37:52;;;;;;;12.83;7.27;;;;;;;8.23;100.00;99900.54;1689568;83;21235;-58
2021/09/24 03:40:19;;;;;;;14.30;10.97;;;;;;;8.53;100.00;99897.52;1690042;83;21237;-62
2021/09/24 03:42:45;;;;;;;12.20;7.93;;;;;;;8.69;100.00;99897.84;1689933;83;21277;-59
2021/09/24 03:45:11;;;;;;;10.97;7.30;;;;;;;8.81;100.00;99900.78;1692623;82;22348;-59
2021/09/24 03:47:38;;;;;;;14.90;7.33;;;;;;;8.88;100.00;99910.78;1702064;82;21262;-58
2021/09/24 03:50:06;;;;;;;12.67;7.73;;;;;;;9.14;100.00;99918.61;1675612;83;21210;-58
2021/09/24 03:52:33;;;;;;;12.87;7.73;;;;;;;8.93;100.00;99918.83;1687385;83;21744;-65
2021/09/24 03:55:02;;;;;;;9.53;7.30;;;;;;;9.06;100.00;99910.91;1696348;83;21321;-60
2021/09/24 03:57:29;;;;;;;10.20;7.07;;;;;;;8.98;100.00;99917.02;1697704;83;22437;-59
2021/09/24 03:59:56;;;;;;;11.63;7.47;;;;;;;8.95;100.00;99918.17;1696545;83;21143;-58
2021/09/24 04:02:23;;;;;;;10.63;7.70;;;;;;;9.09;100.00;99917.86;1695100;83;22363;-59
2021/09/24 04:04:50;;;;;;;9.57;7.40;;;;;;;8.97;100.00;99917.48;1695319;83;21857;-59
2021/09/24 04:07:19;;;;;;;14.30;8.73;;;;;;;8.95;100.00;99908.27;1697345;83;21245;-58
2021/09/24 04:09:47;;;;;;;12.83;8.70;;;;;;;9.08;100.00;99911.02;1693003;83;21233;-59
2021/09/24 04:12:14;;;;;;;13.43;9.00;;;;;;;9.43;100.00;99911.21;1697159;83;21259;-58
2021/09/24 04:14:42;;;;;;;14.90;9.70;;;;;;;9.80;100.00;99912.80;1693801;83;21076;-58
2021/09/24 04:17:09;;;;;;;13.97;9.93;;;;;;;10.02;100.00;99912.80;1694875;83;21325;-65
2021/09/24 04:19:37;;;;;;;14.10;9.37;;;;;;;10.42;100.00;99906.92;1692493;83;21380;-59
2021/09/24 04:22:04;;;;;;;13.33;10.40;;;;;;;10.94;100.00;99902.19;1696689;83;21242;-61
2021/09/24 04:24:32;;;;;;;16.03;11.67;;;;;;;10.94;100.00;99902.19;1693470;83;21365;-61
2021/09/24 04:26:59;;;;;;;13.10;9.53;;;;;;;11.51;100.00;99898.36;1694157;83;21531;-58
2021/09/24 04:29:26;;;;;;;10.77;8.20;;;;;;;11.51;100.00;99898.36;1693361;84;21628;-58
2021/09/24 04:31:54;;;;;;;10.60;8.60;;;;;;;11.54;100.00;99901.09;1662821;85;21653;-58
2021/09/24 04:34:20;;;;;;;13.20;9.23;;;;;;;11.58;100.00;99907.52;1646750;86;22227;-64
2021/09/24 04:36:47;;;;;;;11.43;8.80;;;;;;;11.73;100.00;99909.95;1643930;85;21802;-62
2021/09/24 04:39:14;;;;;;;12.07;9.53;;;;;;;12.11;100.00;99910.20;1648447;86;21805;-61
2021/09/24 04:41:40;;;;;;;14.57;11.10;;;;;;;12.58;100.00;99913.59;1643876;86;22213;-59
2021/09/24 04:44:07;;;;;;;12.90;10.23;;;;;;;13.34;100.00;99908.52;1646181;86;20995;-60
2021/09/24 04:46:34;;;;;;;10.97;8.30;;;;;;;14.02;100.00;99901.84;1643841;86;21150;-61
2021/09/24 04:49:01;;;;;;;11.97;9.80;;;;;;;14.22;100.00;99900.36;1646667;86;20985;-60
2021/09/24 04:51:29;;;;;;;9.53;8.10;;;;;;;14.57;100.00;99888.33;1642992;86;20950;-60
2021/09/24 04:53:56;;;;;;;9.57;8.27;;;;;;;14.99;100.00;99889.77;1647515;86;20896;-59
2021/09/24 04:56:22;;;;;;;10.73;8.43;;;;;;;15.78;100.00;99889.22;1644286;86;21000;-63
2021/09/24 04:58:51;;;;;;;8.73;7.70;;;;;;;16.15;100.00;99889.04;1644784;86;22440;-65
2021/09/24 05:01:18;;;;;;;8.03;7.23;;;;;;;16.17;100.00;99883.02;1645324;86;21138;-59
2021/09/24 05:03:45;;;;;;;8.30;7.50;;;;;;;16.23;100.00;99886.58;1672890;83;21082;-59
2021/09/24 05:06:11;;;;;;;10.67;7.63;;;;;;;16.33;100.00;99887.30;1700033;82;21555;-65
2021/09/24 05:08:40;;;;;;;8.90;8.00;;;;;;;16.32;100.00;99881.77;1692391;82;21048;-61
2021/09/24 05:11:06;;;;;;;10.13;8.73;;;;;;;16.28;100.00;99890.11;1671392;84;21102;-66
2021/09/24 05:13:34;;;;;;;9.20;8.17;;;;;;;16.39;100.00;99883.77;1669651;84;20923;-60
2021/09/24 05:16:02;;;;;;;11.63;8.47;;;;;;;16.44;100.00;99883.87;1669162;84;21065;-60
2021/09/24 05:18:30;;;;;;;9.00;8.10;;;;;;;16.58;100.00;99881.80;1666700;84;21530;-61
2021/09/24 05:20:57;;;;;;;10.00;8.97;;;;;;;16.51;100.00;99881.40;1670579;84;21369;-61
2021/09/24 05:23:25;;;;;;;10.33;8.77;;;;;;;16.56;100.00;99879.41;1672078;83;21649;-66
2021/09/24 05:25:52;;;;;;;10.20;8.97;;;;;;;16.65;100.00;99881.16;1673447;83;20946;-62
2021/09/24 05:28:20;;;;;;;8.97;7.93;;;;;;;16.67;100.00;99879.91;1672895;83;21037;-66
2021/09/24 05:30:47;;;;;;;10.00;9.00;;;;;;;16.65;100.00;99880.64;1671538;83;21067;-61
2021/09/24 05:33:14;;;;;;;9.73;8.73;;;;;;;16.74;100.00;99881.11;1672024;83;21128;-61
2021/09/24 05:35:41;;;;;;;11.13;9.87;;;;;;;16.70;100.00;99882.58;1666635;83;21543;-67
2021/09/24 05:38:08;;;;;;;9.83;8.50;;;;;;;16.72;100.00;99876.58;1671564;83;21084;-62
2021/09/24 05:40:34;;;;;;;9.30;8.33;;;;;;;16.82;100.00;99874.68;1670832;83;21014;-61
2021/09/24 05:43:02;;;;;;;9.03;8.13;;;;;;;16.95;100.00;99873.11;1669719;83;21077;-61
2021/09/24 05:45:28;;;;;;;9.67;8.70;;;;;;;17.17;100.00;99879.33;1657515;83;21032;-62
2021/09/24 05:47:56;;;;;;;9.90;8.90;;;;;;;17.31;100.00;99876.39;1699628;82;21134;-63
2021/09/24 05:50:23;;;;;;;10.50;9.40;;;;;;;17.43;100.00;99873.20;1670404;85;21184;-66
2021/09/24 05:52:52;;;;;;;9.27;8.37;;;;;;;17.50;100.00;99876.47;1677576;83;21035;-62
2021/09/24 05:55:22;;;;;;;9.20;8.30;;;;;;;17.48;100.00;99874.60;1670806;83;21052;-63
2021/09/24 05:57:49;;;;;;;9.27;8.30;;;;;;;17.32;100.00;99870.91;1670265;84;21087;-67
2021/09/24 06:00:17;;;;;;;9.30;8.27;;;;;;;17.33;100.00;99874.34;1669522;83;21138;-67
2021/09/24 06:02:44;;;;;;;8.70;7.80;;;;;;;17.31;100.00;99873.76;1667574;83;21108;-63
2021/09/24 06:05:11;;;;;;;8.17;7.33;;;;;;;17.49;100.00;99872.23;1670061;83;21002;-64
2021/09/24 06:07:40;;;;;;;8.33;7.53;;;;;;;18.02;100.00;99868.89;1666619;83;21000;-66
2021/09/24 06:10:09;;;;;;;9.03;8.13;;;;;;;18.64;100.00;99861.57;1671483;83;21030;-66
2021/09/24 06:12:35;;;;;;;8.40;7.60;;;;;;;19.05;100.00;99862.04;1665444;84;21810;-64
2021/09/24 06:15:03;;;;;;;7.70;6.73;;;;;;;19.57;100.00;99863.33;1668406;85;22463;-64
2021/09/24 06:17:30;;;;;;;8.83;8.00;;;;;;;20.54;100.00;99856.87;1666727;83;21156;-65
2021/09/24 06:19:58;;;;;;;8.73;7.90;;;;;;;21.34;97.98;99861.89;1670092;83;21013;-63
2021/09/24 06:22:26;;;;;;;9.10;7.73;;;;;;;21.76;86.95;99864.28;1672599;83;20926;-64
2021/09/24 06:24:53;;;;;;;8.37;7.57;;;;;;;22.14;74.33;99858.16;1676321;83;22193;-64
2021/09/24 06:27:19;;;;;;;7.33;6.63;;;;;;;22.13;68.42;99853.10;1699098;83;21066;-65
2021/09/24 06:29:49;;;;;;;8.37;7.53;;;;;;;22.37;68.93;99850.66;1688609;83;21526;-64
2021/09/24 06:32:16;;;;;;;8.97;8.10;;;;;;;23.09;62.42;99847.16;1689554;81;20977;-66
2021/09/24 06:34:44;;;;;;;9.48;8.38;;;;;;;23.95;57.25;99847.82;1683542;83;21171;-62
2021/09/24 06:37:11;;;;;;;8.60;7.80;;;;;;;24.91;52.94;99833.10;1689997;83;21625;-65
2021/09/24 06:39:38;;;;;;;10.32;9.28;;;;;;;24.93;50.93;99843.50;1688072;83;21021;-66
2021/09/24 06:42:05;;;;;;;12.40;10.00;;;;;;;25.42;49.37;99841.71;1688866;83;21073;-68
2021/09/24 06:44:32;;;;;;;10.85;9.75;;;;;;;25.73;46.29;99837.19;1688511;83;21637;-72
2021/09/24 06:46:58;;;;;;;10.53;9.35;;;;;;;26.20;45.27;99831.27;1687174;83;21124;-65
2021/09/24 06:49:25;;;;;;;7.80;7.05;;;;;;;26.71;42.43;99832.13;1689616;83;21167;-65
2021/09/24 06:51:52;;;;;;;7.92;7.12;;;;;;;26.35;41.74;99828.84;1689802;83;21480;-64
2021/09/24 06:54:19;;;;;;;10.58;9.45;;;;;;;26.14;42.18;99824.46;1690697;83;21156;-64
2021/09/24 06:56:46;;;;;;;11.48;9.58;;;;;;;26.25;41.51;99827.15;1687117;83;21035;-73
2021/09/24 06:59:14;;;;;;;9.05;8.15;;;;;;;26.24;41.19;99828.25;1684580;83;21095;-65
2021/09/24 07:01:43;;;;;;;9.33;8.43;;;;;;;25.87;41.75;99826.00;1689394;83;21164;-68
2021/09/24 07:04:11;;;;;;;9.10;8.28;;;;;;;25.46;41.99;99820.03;1675508;83;21416;-68
2021/09/24 07:06:38;;;;;;;6.80;5.87;;;;;;;25.26;43.04;99825.67;1673800;83;20932;-75
2021/09/24 07:09:05;;;;;;;6.83;6.22;;;;;;;25.35;40.81;99823.95;1673774;83;20954;-72
2021/09/24 07:11:32;;;;;;;7.10;6.50;;;;;;;24.89;39.80;99823.28;1672838;83;20986;-67
2021/09/24 07:13:59;;;;;;;6.12;5.53;;;;;;;24.37;41.17;99828.20;1672398;84;21082;-66
2021/09/24 07:16:27;;;;;;;7.20;6.37;;;;;;;24.46;41.72;99832.63;1669181;84;20993;-70
2021/09/24 07:18:55;;;;;;;6.85;6.17;;;;;;;24.56;40.87;99822.39;1676777;83;20972;-65
2021/09/24 07:21:23;;;;;;;7.97;7.17;;;;;;;24.57;40.57;99827.17;1674129;83;20938;-67
2021/09/24 07:23:50;;;;;;;7.08;6.37;;;;;;;24.28;41.49;99826.68;1656972;84;21098;-65
2021/09/24 07:26:17;;;;;;;7.28;6.35;;;;;;;24.33;42.82;99819.98;1656976;85;21155;-67
2021/09/24 07:28:44;;;;;;;6.58;5.97;;;;;;;24.68;41.65;99812.64;1660522;84;21027;-75
2021/09/24 07:31:11;;;;;;;7.65;6.85;;;;;;;24.94;41.21;99815.20;1641477;85;21105;-70
2021/09/24 07:33:37;;;;;;;6.95;6.35;;;;;;;25.06;40.42;99816.64;1664169;84;21158;-65
2021/09/24 07:36:06;;;;;;;6.28;5.67;;;;;;;25.03;40.96;99811.88;1660681;84;20972;-66
2021/09/24 07:38:32;;;;;;;6.55;5.95;;;;;;;24.93;42.39;99804.30;1657981;84;22558;-66
2021/09/24 07:41:00;;;;;;;6.60;5.90;;;;;;;25.31;41.57;99812.28;1659483;84;21705;-68
2021/09/24 07:43:27;;;;;;;6.55;5.85;;;;;;;25.41;39.49;99802.75;1659473;85;21106;-65
2021/09/24 07:45:58;;;;;;;7.83;6.28;;;;;;;25.00;38.99;99807.39;1657194;85;21056;-64
2021/09/24 07:48:25;;;;;;;7.15;6.45;;;;;;;24.51;39.16;99803.27;1657754;84;21025;-65
2021/09/24 07:50:51;;;;;;;7.53;6.83;;;;;;;23.69;40.49;99799.36;1657397;85;21281;-79
2021/09/24 07:53:19;;;;;;;7.47;6.77;;;;;;;22.79;42.40;99801.06;1673250;83;21059;-70
2021/09/24 07:55:47;;;;;;;9.07;8.27;;;;;;;22.15;44.08;99799.22;1658487;84;21134;-67
2021/09/24 07:58:13;;;;;;;7.20;6.50;;;;;;;21.54;46.25;99792.94;1659874;84;21060;-66
2021/09/24 08:00:40;;;;;;;8.00;6.57;;;;;;;21.04;47.76;99793.70;1663971;84;20955;-80
2021/09/24 08:03:06;;;;;;;6.20;5.50;;;;;;;20.74;48.99;99784.64;1663213;83;21171;-63
2021/09/24 08:05:33;;;;;;;5.70;5.10;;;;;;;20.76;48.86;99783.86;1671468;83;21060;-63
2021/09/24 08:07:59;;;;;;;5.00;4.50;;;;;;;21.12;49.59;99780.72;1708289;82;21077;-67
2021/09/24 08:10:28;;;;;;;5.27;4.77;;;;;;;21.46;47.47;99768.83;1695122;82;21081;-64
2021/09/24 08:12:55;;;;;;;5.60;5.10;;;;;;;22.14;46.33;99767.11;1692670;82;21508;-65
2021/09/24 08:15:24;;;;;;;7.03;5.43;;;;;;;22.69;44.28;99767.89;1692934;84;21517;-70
2021/09/24 08:17:52;;;;;;;5.00;4.50;;;;;;;23.18;44.16;99766.52;1694507;84;21468;-66
2021/09/24 08:20:20;;;;;;;4.80;4.27;;;;;;;23.57;41.34;99756.89;1695419;82;21884;-66
2021/09/24 08:22:48;;;;;;;5.13;4.63;;;;;;;23.54;40.79;99750.26;1695158;84;21034;-75
2021/09/24 08:25:16;;;;;;;5.13;4.63;;;;;;;23.44;41.05;99749.80;1695253;84;20961;-67
2021/09/24 08:27:43;;;;;;;5.80;5.20;;;;;;;23.53;40.55;99751.34;1693279;84;22562;-64
2021/09/24 08:30:12;;;;;;;6.93;4.73;;;;;;;23.59;40.86;99748.08;1693770;84;21113;-64
2021/09/24 08:32:40;;;;;;;5.57;5.00;;;;;;;24.06;41.00;99734.56;1692334;84;21614;-65
2021/09/24 08:35:09;;;;;;;4.83;4.30;;;;;;;24.51;40.77;99730.55;1691573;84;21132;-63
2021/09/24 08:37:38;;;;;;;5.40;4.87;;;;;;;24.65;38.08;99730.59;1690426;82;21072;-63
2021/09/24 08:40:07;;;;;;;4.93;4.00;;;;;;;24.15;38.02;99724.31;1690356;84;21158;-65
2021/09/24 08:42:39;;;;;;;4.60;4.00;;;;;;;23.37;38.21;99725.40;1690467;82;20958;-65
2021/09/24 08:45:10;;;;;;;5.50;4.50;;;;;;;22.50;39.87;99722.58;1687990;84;21120;-66
2021/09/24 08:47:37;;;;;;;5.30;4.70;;;;;;;21.94;41.65;99733.45;1686579;84;21575;-65
2021/09/24 08:50:07;;;;;;;6.17;4.07;;;;;;;21.46;42.65;99727.19;1690815;84;21084;-61
2021/09/24 08:52:37;;;;;;;4.60;3.60;;;;;;;21.20;43.35;99727.70;1688713;84;21005;-67
2021/09/24 08:55:08;;;;;;;4.43;3.40;;;;;;;21.22;43.20;99717.65;1688914;84;21454;-63
2021/09/24 08:57:35;;;;;;;4.43;3.57;;;;;;;21.32;43.52;99711.52;1689386;84;21523;-72
2021/09/24 09:00:04;;;;;;;4.70;3.67;;;;;;;21.74;43.63;99710.41;1691872;84;20934;-63
2021/09/24 09:02:57;;;;;;;5.27;3.93;;;;;;;21.96;42.73;99713.52;1689897;84;21499;-64
2021/09/24 09:05:28;;;;;;;5.03;3.70;;;;;;;21.74;41.58;99709.88;1697937;84;21073;-68
2021/09/24 09:08:18;;;;;;;4.83;4.07;;;;;;;21.19;42.47;99709.44;1694916;84;20945;-79
2021/09/24 09:10:56;;;;;;;4.63;4.13;;;;;;;20.88;43.30;99710.77;1697977;83;21072;-65
2021/09/24 09:13:28;;;;;;;4.80;3.97;;;;;;;20.59;43.49;99706.48;1678054;83;20918;-70
2021/09/24 09:16:14;;;;;;;5.05;4.35;;;;;;;20.37;43.96;99706.66;1700599;82;21901;-64
2021/09/24 09:18:43;;;;;;;4.60;3.90;;;;;;;20.09;44.42;99694.14;1672516;83;21734;-65
2021/09/24 09:21:13;;;;;;;5.20;4.23;;;;;;;20.03;46.17;99693.05;1675773;83;21428;-68
2021/09/24 09:23:45;;;;;;;5.17;3.90;;;;;;;19.92;46.25;99696.97;1677028;83;21444;-63
2021/09/24 09:26:12;;;;;;;5.03;4.30;;;;;;;19.90;46.51;99694.34;1690923;82;21110;-65
2021/09/24 09:28:51;;;;;;;4.67;4.17;;;;;;;19.83;46.18;99693.23;1687857;82;21330;-63
2021/09/24 09:31:32;;;;;;;5.87;4.60;;;;;;;19.78;46.95;99693.76;1688853;82;21085;-65
2021/09/24 09:34:02;;;;;;;5.97;4.40;;;;;;;19.54;47.57;99696.75;1695887;82;21017;-64
2021/09/24 09:36:37;;;;;;;4.77;4.03;;;;;;;19.58;47.70;99691.22;1696990;82;20937;-70
2021/09/24 09:39:09;;;;;;;6.20;4.20;;;;;;;19.52;47.55;99694.11;1697932;82;21338;-77
2021/09/24 09:41:36;;;;;;;4.78;4.03;;;;;;;19.39;47.81;99690.05;1695702;82;20988;-64
2021/09/24 09:44:04;;;;;;;4.13;3.20;;;;;;;19.44;48.38;99691.42;1695504;82;21094;-63
2021/09/24 09:46:34;;;;;;;4.23;3.13;;;;;;;19.75;48.72;99691.09;1692905;82;21172;-69
2021/09/24 09:49:10;;;;;;;4.80;3.40;;;;;;;19.51;48.85;99688.03;1696021;82;21920;-66
2021/09/24 09:51:40;;;;;;;4.53;3.47;;;;;;;19.38;48.27;99697.72;1695001;82;21031;-65
2021/09/24 09:54:09;;;;;;;4.47;3.37;;;;;;;19.47;47.63;99693.53;1702775;82;21116;-66
2021/09/24 09:56:46;;;;;;;4.50;3.57;;;;;;;19.23;48.32;99694.44;1701177;82;22156;-64
2021/09/24 09:59:25;;;;;;;4.90;3.93;;;;;;;19.09;49.34;99692.77;1701327;82;21029;-66
2021/09/24 10:02:14;;;;;;;5.47;4.50;;;;;;;19.25;49.23;99688.92;1699834;82;21116;-66
2021/09/24 10:04:45;;;;;;;5.67;4.50;;;;;;;18.95;49.87;99683.14;1688768;82;21068;-75
2021/09/24 10:07:18;;;;;;;5.60;3.98;;;;;;;19.24;49.83;99683.34;1686045;83;21088;-72
2021/09/24 10:09:46;;;;;;;4.77;3.57;;;;;;;19.59;50.23;99677.50;1690255;83;21393;-65
2021/09/24 10:12:20;;;;;;;4.10;3.10;;;;;;;19.93;47.84;99672.66;1662367;85;21586;-64
2021/09/24 10:14:51;;;;;;;3.73;2.83;;;;;;;19.56;48.28;99677.47;1687966;83;21077;-64
2021/09/24 10:17:20;;;;;;;3.62;2.65;;;;;;;19.50;48.33;99672.41;1684972;83;21069;-64
2021/09/24 10:19:46;;;;;;;4.27;2.70;;;;;;;19.48;46.29;99664.75;1689376;83;21653;-67
2021/09/24 10:22:15;;;;;;;3.70;2.63;;;;;;;19.54;45.38;99662.38;1685243;83;21185;-63
2021/09/24 10:24:41;;;;;;;5.83;2.87;;;;;;;19.51;44.98;99660.28;1687657;83;21257;-74
2021/09/24 10:27:21;;;;;;;4.10;2.97;;;;;;;19.39;45.50;99654.37;1690554;83;22428;-74
2021/09/24 10:29:48;;;;;;;3.77;2.90;;;;;;;19.68;45.36;99649.53;1684917;83;22214;-64
2021/09/24 10:32:26;;;;;;;4.00;2.80;;;;;;;19.74;45.10;99646.41;1688174;83;21001;-64
2021/09/24 10:35:11;;;;;;;4.60;3.00;;;;;;;19.85;44.42;99643.53;1682017;83;21626;-69
2021/09/24 10:37:45;;;;;;;4.63;3.30;;;;;;;19.52;45.21;99642.03;1686409;83;21035;-65
2021/09/24 10:40:26;;;;;;;6.00;3.20;;;;;;;19.37;46.22;99645.91;1686417;83;21017;-64
2021/09/24 10:42:58;;;;;;;4.13;2.93;;;;;;;19.42;45.32;99644.08;1686046;83;21539;-63
2021/09/24 10:45:42;;;;;;;4.28;2.70;;;;;;;19.52;44.98;99645.20;1691038;82;21076;-63
2021/09/24 10:48:22;;;;;;;3.80;2.57;;;;;;;19.46;45.69;99639.08;1683604;83;21156;-64
2021/09/24 10:51:06;;;;;;;4.73;2.90;;;;;;;19.37;45.24;99639.31;1688299;83;20988;-63
2021/09/24 10:53:46;;;;;;;5.43;3.30;;;;;;;19.12;45.42;99646.53;1685161;83;21044;-75
2021/09/24 10:56:19;;;;;;;6.28;3.87;;;;;;;19.05;45.82;99643.31;1688902;83;21939;-62
2021/09/24 10:58:46;;;;;;;4.77;3.03;;;;;;;19.05;46.08;99633.55;1687354;83;21554;-62
2021/09/24 11:01:31;;;;;;;5.00;3.50;;;;;;;19.09;46.22;99628.05;1686516;83;21133;-75
2021/09/24 11:04:02;;;;;;;7.87;4.47;;;;;;;19.13;46.40;99633.59;1666815;84;21569;-63
2021/09/24 11:06:46;;;;;;;5.05;3.12;;;;;;;19.20;45.83;99624.92;1686459;83;21040;-64
2021/09/24 11:09:16;;;;;;;4.57;3.50;;;;;;;19.06;45.53;99627.23;1686506;83;21064;-64
2021/09/24 11:11:47;;;;;;;8.70;4.60;;;;;;;19.03;46.32;99621.66;1684297;83;21016;-64
2021/09/24 11:14:32;;;;;;;4.83;3.37;;;;;;;19.11;46.39;99625.93;1685647;83;20984;-61
2021/09/24 11:17:04;;;;;;;4.17;2.97;;;;;;;19.21;46.40;99615.97;1681554;83;21037;-63
2021/09/24 11:19:49;;;;;;;5.27;3.30;;;;;;;19.14;46.36;99618.03;1684232;83;21048;-63
2021/09/24 11:22:21;;;;;;;4.60;3.07;;;;;;;18.91;46.29;99619.20;1678119;83;21007;-75
2021/09/24 11:25:04;;;;;;;4.37;2.93;;;;;;;18.83;45.30;99619.14;1686117;83;21055;-62
2021/09/24 11:27:39;;;;;;;5.40;3.15;;;;;;;18.63;45.44;99618.41;1645832;85;21081;-62
2021/09/24 11:30:16;;;;;;;4.17;2.87;;;;;;;18.50;45.83;99612.77;1619394;86;21159;-63
2021/09/24 11:32:45;;;;;;;5.77;3.10;;;;;;;18.23;47.14;99613.05;1642916;86;21529;-62
2021/09/24 11:35:15;;;;;;;6.20;3.00;;;;;;;18.22;47.27;99611.95;1643157;86;20955;-62